Samos, Greece
Current Conditions -  °F | °C
As of 1:20 PM on Thursday 18 Dec 2014 (Local Time) from LGSM Reporting Station
Scattered Clouds Scattered Clouds  
Wind Chill: 18°   Ceiling: Unl
Heat Index: 18°   Visibility: 6mi
Dew Point: 12°   Wind: 8mph
Humidity: 68%   Direction: 120°ESE
Pressure: 30.03"   Gusts: NA
Location:  37.76°N, 26.98°E
Report Text: LGSM 181020Z 12007KT 9999 SCT020 18/12 Q1017
Loading
Personal Weather Stations






























Interactive Weather Map New forecast layout! Learn more

10-Day Weather Forecast

Advertisements
Track Severe Weather on mobile